sensor_id;sensor_type;location;lat;lon;timestamp;P1;durP1;ratioP1;P2;durP2;ratioP2
12302;SDS011;6214;48.012;7.862;2023-08-31T00:01:57;4.03;;;0.90;;
12302;SDS011;6214;48.012;7.862;2023-08-31T00:04:25;4.70;;;1.05;;
12302;SDS011;6214;48.012;7.862;2023-08-31T00:06:52;5.03;;;1.00;;
12302;SDS011;6214;48.012;7.862;2023-08-31T00:09:19;4.50;;;1.20;;
12302;SDS011;6214;48.012;7.862;2023-08-31T00:11:46;4.90;;;1.10;;
12302;SDS011;6214;48.012;7.862;2023-08-31T00:14:12;4.50;;;1.17;;
12302;SDS011;6214;48.012;7.862;2023-08-31T00:16:39;4.73;;;1.40;;
12302;SDS011;6214;48.012;7.862;2023-08-31T00:19:07;4.70;;;1.40;;
12302;SDS011;6214;48.012;7.862;2023-08-31T00:21:34;5.95;;;1.50;;
12302;SDS011;6214;48.012;7.862;2023-08-31T00:24:00;5.57;;;1.20;;
12302;SDS011;6214;48.012;7.862;2023-08-31T00:26:27;4.30;;;1.10;;
12302;SDS011;6214;48.012;7.862;2023-08-31T00:28:57;5.30;;;1.70;;
12302;SDS011;6214;48.012;7.862;2023-08-31T00:31:24;5.18;;;1.42;;
12302;SDS011;6214;48.012;7.862;2023-08-31T00:33:54;5.13;;;1.30;;
12302;SDS011;6214;48.012;7.862;2023-08-31T00:36:21;5.57;;;1.30;;
12302;SDS011;6214;48.012;7.862;2023-08-31T00:38:49;4.65;;;1.20;;
12302;SDS011;6214;48.012;7.862;2023-08-31T00:41:16;4.60;;;1.00;;
12302;SDS011;6214;48.012;7.862;2023-08-31T00:43:42;4.30;;;1.13;;
12302;SDS011;6214;48.012;7.862;2023-08-31T00:46:09;4.82;;;1.30;;
12302;SDS011;6214;48.012;7.862;2023-08-31T00:48:36;5.00;;;1.30;;
12302;SDS011;6214;48.012;7.862;2023-08-31T00:51:03;4.60;;;1.30;;
12302;SDS011;6214;48.012;7.862;2023-08-31T00:53:31;5.03;;;1.20;;
12302;SDS011;6214;48.012;7.862;2023-08-31T00:55:58;5.25;;;1.80;;
12302;SDS011;6214;48.012;7.862;2023-08-31T00:58:25;5.32;;;1.30;;
12302;SDS011;6214;48.012;7.862;2023-08-31T01:09:00;4.30;;;1.20;;
12302;SDS011;6214;48.012;7.862;2023-08-31T01:11:45;4.60;;;1.50;;
12302;SDS011;6214;48.012;7.862;2023-08-31T01:14:27;4.60;;;1.40;;
12302;SDS011;6214;48.012;7.862;2023-08-31T01:17:05;4.50;;;1.30;;
12302;SDS011;6214;48.012;7.862;2023-08-31T01:19:45;5.00;;;1.40;;
12302;SDS011;6214;48.012;7.862;2023-08-31T01:22:38;4.90;;;1.55;;
12302;SDS011;6214;48.012;7.862;2023-08-31T01:25:09;5.22;;;1.33;;
12302;SDS011;6214;48.012;7.862;2023-08-31T01:27:37;5.03;;;1.60;;
12302;SDS011;6214;48.012;7.862;2023-08-31T01:30:05;5.05;;;1.60;;
12302;SDS011;6214;48.012;7.862;2023-08-31T01:32:32;5.28;;;1.85;;
12302;SDS011;6214;48.012;7.862;2023-08-31T01:35:00;5.10;;;1.40;;
12302;SDS011;6214;48.012;7.862;2023-08-31T01:37:44;4.40;;;1.23;;
12302;SDS011;6214;48.012;7.862;2023-08-31T01:43:24;5.32;;;1.50;;
12302;SDS011;6214;48.012;7.862;2023-08-31T01:45:52;4.70;;;1.63;;
12302;SDS011;6214;48.012;7.862;2023-08-31T01:48:19;5.00;;;1.40;;
12302;SDS011;6214;48.012;7.862;2023-08-31T01:50:47;4.32;;;1.30;;
12302;SDS011;6214;48.012;7.862;2023-08-31T01:53:13;5.00;;;1.60;;
12302;SDS011;6214;48.012;7.862;2023-08-31T01:55:41;5.03;;;1.50;;
12302;SDS011;6214;48.012;7.862;2023-08-31T01:58:08;4.80;;;1.50;;
12302;SDS011;6214;48.012;7.862;2023-08-31T02:00:35;5.50;;;1.70;;
12302;SDS011;6214;48.012;7.862;2023-08-31T02:03:04;4.80;;;1.50;;
12302;SDS011;6214;48.012;7.862;2023-08-31T02:05:34;4.80;;;1.60;;
12302;SDS011;6214;48.012;7.862;2023-08-31T02:08:01;5.22;;;1.65;;
12302;SDS011;6214;48.012;7.862;2023-08-31T02:10:28;5.60;;;1.80;;
12302;SDS011;6214;48.012;7.862;2023-08-31T02:12:56;5.23;;;1.80;;
12302;SDS011;6214;48.012;7.862;2023-08-31T02:15:23;4.93;;;1.50;;
12302;SDS011;6214;48.012;7.862;2023-08-31T02:17:50;5.40;;;1.60;;
12302;SDS011;6214;48.012;7.862;2023-08-31T02:20:17;5.20;;;1.73;;
12302;SDS011;6214;48.012;7.862;2023-08-31T02:22:46;5.68;;;1.80;;
12302;SDS011;6214;48.012;7.862;2023-08-31T02:25:15;5.72;;;1.70;;
12302;SDS011;6214;48.012;7.862;2023-08-31T02:27:43;5.20;;;1.83;;
12302;SDS011;6214;48.012;7.862;2023-08-31T02:30:10;5.10;;;1.63;;
12302;SDS011;6214;48.012;7.862;2023-08-31T02:32:37;5.72;;;1.60;;
12302;SDS011;6214;48.012;7.862;2023-08-31T02:35:04;5.18;;;1.67;;
12302;SDS011;6214;48.012;7.862;2023-08-31T02:37:31;5.05;;;1.60;;
12302;SDS011;6214;48.012;7.862;2023-08-31T02:39:58;5.50;;;1.60;;
12302;SDS011;6214;48.012;7.862;2023-08-31T02:42:25;5.40;;;1.50;;
12302;SDS011;6214;48.012;7.862;2023-08-31T02:44:52;6.10;;;1.50;;
12302;SDS011;6214;48.012;7.862;2023-08-31T02:47:20;5.80;;;1.50;;
12302;SDS011;6214;48.012;7.862;2023-08-31T02:49:47;5.30;;;1.52;;
12302;SDS011;6214;48.012;7.862;2023-08-31T02:52:14;4.70;;;1.30;;
12302;SDS011;6214;48.012;7.862;2023-08-31T02:54:41;4.93;;;1.63;;
12302;SDS011;6214;48.012;7.862;2023-08-31T02:57:08;5.13;;;1.40;;
12302;SDS011;6214;48.012;7.862;2023-08-31T02:59:35;5.53;;;1.67;;
12302;SDS011;6214;48.012;7.862;2023-08-31T03:02:03;4.88;;;1.33;;
12302;SDS011;6214;48.012;7.862;2023-08-31T03:04:30;5.30;;;1.50;;
12302;SDS011;6214;48.012;7.862;2023-08-31T03:06:57;5.82;;;1.60;;
12302;SDS011;6214;48.012;7.862;2023-08-31T03:09:24;6.30;;;1.50;;
12302;SDS011;6214;48.012;7.862;2023-08-31T03:11:51;4.90;;;1.60;;
12302;SDS011;6214;48.012;7.862;2023-08-31T03:14:18;6.10;;;1.70;;
12302;SDS011;6214;48.012;7.862;2023-08-31T03:16:45;4.82;;;1.40;;
12302;SDS011;6214;48.012;7.862;2023-08-31T03:19:12;6.00;;;1.42;;
12302;SDS011;6214;48.012;7.862;2023-08-31T03:21:39;5.90;;;1.70;;
12302;SDS011;6214;48.012;7.862;2023-08-31T03:24:06;6.30;;;1.50;;
12302;SDS011;6214;48.012;7.862;2023-08-31T03:26:33;4.30;;;1.20;;
12302;SDS011;6214;48.012;7.862;2023-08-31T03:29:00;6.22;;;1.70;;
12302;SDS011;6214;48.012;7.862;2023-08-31T03:31:29;5.78;;;1.40;;
12302;SDS011;6214;48.012;7.862;2023-08-31T03:33:57;5.47;;;1.57;;
12302;SDS011;6214;48.012;7.862;2023-08-31T03:36:24;5.63;;;1.60;;
12302;SDS011;6214;48.012;7.862;2023-08-31T03:38:51;6.27;;;1.40;;
12302;SDS011;6214;48.012;7.862;2023-08-31T03:41:18;5.30;;;1.40;;
12302;SDS011;6214;48.012;7.862;2023-08-31T03:43:45;5.18;;;1.60;;
12302;SDS011;6214;48.012;7.862;2023-08-31T03:46:12;4.95;;;1.50;;
12302;SDS011;6214;48.012;7.862;2023-08-31T03:48:39;5.20;;;1.35;;
12302;SDS011;6214;48.012;7.862;2023-08-31T03:51:06;6.18;;;1.70;;
12302;SDS011;6214;48.012;7.862;2023-08-31T03:53:33;4.50;;;1.42;;
12302;SDS011;6214;48.012;7.862;2023-08-31T03:56:00;6.80;;;1.60;;
12302;SDS011;6214;48.012;7.862;2023-08-31T03:58:28;5.53;;;1.50;;
12302;SDS011;6214;48.012;7.862;2023-08-31T04:00:54;4.90;;;1.40;;
12302;SDS011;6214;48.012;7.862;2023-08-31T04:03:21;5.90;;;1.60;;
12302;SDS011;6214;48.012;7.862;2023-08-31T04:05:57;5.35;;;1.45;;
12302;SDS011;6214;48.012;7.862;2023-08-31T04:08:24;5.05;;;1.33;;
12302;SDS011;6214;48.012;7.862;2023-08-31T04:10:51;4.60;;;1.60;;
12302;SDS011;6214;48.012;7.862;2023-08-31T04:13:18;6.10;;;1.40;;
12302;SDS011;6214;48.012;7.862;2023-08-31T04:15:45;5.60;;;1.60;;
12302;SDS011;6214;48.012;7.862;2023-08-31T04:18:12;5.10;;;1.60;;
12302;SDS011;6214;48.012;7.862;2023-08-31T04:20:45;5.10;;;1.60;;
12302;SDS011;6214;48.012;7.862;2023-08-31T04:23:20;5.38;;;2.00;;
12302;SDS011;6214;48.012;7.862;2023-08-31T04:25:48;6.10;;;1.67;;
12302;SDS011;6214;48.012;7.862;2023-08-31T04:28:15;5.18;;;1.55;;
12302;SDS011;6214;48.012;7.862;2023-08-31T04:30:42;5.38;;;1.70;;
12302;SDS011;6214;48.012;7.862;2023-08-31T04:33:11;5.05;;;1.60;;
12302;SDS011;6214;48.012;7.862;2023-08-31T04:35:38;5.38;;;1.60;;
12302;SDS011;6214;48.012;7.862;2023-08-31T04:38:05;4.70;;;1.63;;
12302;SDS011;6214;48.012;7.862;2023-08-31T04:40:32;8.32;;;2.00;;
12302;SDS011;6214;48.012;7.862;2023-08-31T04:42:59;5.43;;;1.60;;
12302;SDS011;6214;48.012;7.862;2023-08-31T04:45:26;5.50;;;1.38;;
12302;SDS011;6214;48.012;7.862;2023-08-31T04:47:53;4.80;;;1.58;;
12302;SDS011;6214;48.012;7.862;2023-08-31T04:50:20;5.63;;;1.50;;
12302;SDS011;6214;48.012;7.862;2023-08-31T04:52:47;5.38;;;1.58;;
12302;SDS011;6214;48.012;7.862;2023-08-31T04:55:14;5.50;;;1.75;;
12302;SDS011;6214;48.012;7.862;2023-08-31T04:57:41;5.25;;;1.60;;
12302;SDS011;6214;48.012;7.862;2023-08-31T05:00:08;5.03;;;1.60;;
12302;SDS011;6214;48.012;7.862;2023-08-31T05:02:35;5.23;;;1.50;;
12302;SDS011;6214;48.012;7.862;2023-08-31T05:05:03;5.20;;;1.60;;
12302;SDS011;6214;48.012;7.862;2023-08-31T05:07:31;5.72;;;1.20;;
12302;SDS011;6214;48.012;7.862;2023-08-31T05:09:58;6.30;;;1.67;;
12302;SDS011;6214;48.012;7.862;2023-08-31T05:12:25;6.23;;;1.77;;
12302;SDS011;6214;48.012;7.862;2023-08-31T05:14:52;6.60;;;1.80;;
12302;SDS011;6214;48.012;7.862;2023-08-31T05:17:19;5.53;;;1.63;;
12302;SDS011;6214;48.012;7.862;2023-08-31T05:19:46;5.47;;;1.60;;
12302;SDS011;6214;48.012;7.862;2023-08-31T05:22:13;5.60;;;1.40;;
12302;SDS011;6214;48.012;7.862;2023-08-31T05:24:40;5.80;;;1.55;;
12302;SDS011;6214;48.012;7.862;2023-08-31T05:27:07;5.60;;;1.80;;
12302;SDS011;6214;48.012;7.862;2023-08-31T05:29:34;6.22;;;1.60;;
12302;SDS011;6214;48.012;7.862;2023-08-31T05:32:01;5.15;;;1.77;;
12302;SDS011;6214;48.012;7.862;2023-08-31T05:34:28;5.43;;;1.73;;
12302;SDS011;6214;48.012;7.862;2023-08-31T05:36:58;5.28;;;1.60;;
12302;SDS011;6214;48.012;7.862;2023-08-31T05:39:25;5.72;;;1.80;;
12302;SDS011;6214;48.012;7.862;2023-08-31T05:41:52;5.03;;;1.70;;
12302;SDS011;6214;48.012;7.862;2023-08-31T05:44:19;5.60;;;1.50;;
12302;SDS011;6214;48.012;7.862;2023-08-31T05:46:46;6.43;;;1.80;;
12302;SDS011;6214;48.012;7.862;2023-08-31T05:49:13;5.45;;;1.88;;
12302;SDS011;6214;48.012;7.862;2023-08-31T05:51:40;6.90;;;1.73;;
12302;SDS011;6214;48.012;7.862;2023-08-31T05:54:07;5.30;;;1.90;;
12302;SDS011;6214;48.012;7.862;2023-08-31T05:56:38;6.88;;;1.90;;
12302;SDS011;6214;48.012;7.862;2023-08-31T05:59:06;6.68;;;2.00;;
12302;SDS011;6214;48.012;7.862;2023-08-31T06:01:34;5.30;;;1.70;;
12302;SDS011;6214;48.012;7.862;2023-08-31T06:04:02;6.30;;;1.80;;
12302;SDS011;6214;48.012;7.862;2023-08-31T06:06:30;6.10;;;1.73;;
12302;SDS011;6214;48.012;7.862;2023-08-31T06:08:59;5.57;;;1.80;;
12302;SDS011;6214;48.012;7.862;2023-08-31T06:11:26;5.72;;;1.77;;
12302;SDS011;6214;48.012;7.862;2023-08-31T06:13:53;5.20;;;1.80;;
12302;SDS011;6214;48.012;7.862;2023-08-31T06:16:20;5.40;;;1.80;;
12302;SDS011;6214;48.012;7.862;2023-08-31T06:18:47;5.70;;;1.80;;
12302;SDS011;6214;48.012;7.862;2023-08-31T06:21:14;5.65;;;1.90;;
12302;SDS011;6214;48.012;7.862;2023-08-31T06:23:41;6.00;;;1.90;;
12302;SDS011;6214;48.012;7.862;2023-08-31T06:26:08;5.60;;;1.90;;
12302;SDS011;6214;48.012;7.862;2023-08-31T06:28:35;6.60;;;1.90;;
12302;SDS011;6214;48.012;7.862;2023-08-31T06:31:02;8.05;;;2.00;;
12302;SDS011;6214;48.012;7.862;2023-08-31T06:33:30;5.40;;;2.10;;
12302;SDS011;6214;48.012;7.862;2023-08-31T06:35:57;5.85;;;1.70;;
12302;SDS011;6214;48.012;7.862;2023-08-31T06:38:24;5.10;;;1.70;;
12302;SDS011;6214;48.012;7.862;2023-08-31T06:40:51;5.45;;;1.80;;
12302;SDS011;6214;48.012;7.862;2023-08-31T06:43:25;5.50;;;1.60;;
12302;SDS011;6214;48.012;7.862;2023-08-31T06:45:54;6.30;;;1.87;;
12302;SDS011;6214;48.012;7.862;2023-08-31T06:48:27;6.72;;;1.77;;
12302;SDS011;6214;48.012;7.862;2023-08-31T06:50:54;5.50;;;1.75;;
12302;SDS011;6214;48.012;7.862;2023-08-31T06:53:22;5.95;;;1.90;;
12302;SDS011;6214;48.012;7.862;2023-08-31T06:55:49;6.65;;;1.83;;
12302;SDS011;6214;48.012;7.862;2023-08-31T06:58:16;5.85;;;1.60;;
12302;SDS011;6214;48.012;7.862;2023-08-31T07:00:43;6.65;;;2.00;;
12302;SDS011;6214;48.012;7.862;2023-08-31T07:03:10;6.17;;;1.63;;
12302;SDS011;6214;48.012;7.862;2023-08-31T07:05:41;5.75;;;1.75;;
12302;SDS011;6214;48.012;7.862;2023-08-31T07:08:09;6.63;;;1.90;;
12302;SDS011;6214;48.012;7.862;2023-08-31T07:10:36;6.05;;;1.90;;
12302;SDS011;6214;48.012;7.862;2023-08-31T07:13:03;6.55;;;2.20;;
12302;SDS011;6214;48.012;7.862;2023-08-31T07:15:32;6.40;;;2.00;;
12302;SDS011;6214;48.012;7.862;2023-08-31T07:17:59;7.00;;;2.10;;
12302;SDS011;6214;48.012;7.862;2023-08-31T07:20:26;5.20;;;1.70;;
12302;SDS011;6214;48.012;7.862;2023-08-31T07:22:53;6.00;;;1.80;;
12302;SDS011;6214;48.012;7.862;2023-08-31T07:25:21;6.47;;;1.80;;
12302;SDS011;6214;48.012;7.862;2023-08-31T07:27:48;5.93;;;1.60;;
12302;SDS011;6214;48.012;7.862;2023-08-31T07:30:15;5.43;;;1.90;;
12302;SDS011;6214;48.012;7.862;2023-08-31T07:32:42;7.00;;;2.10;;
12302;SDS011;6214;48.012;7.862;2023-08-31T07:35:09;6.18;;;1.80;;
12302;SDS011;6214;48.012;7.862;2023-08-31T07:37:36;6.50;;;1.95;;
12302;SDS011;6214;48.012;7.862;2023-08-31T07:40:04;6.00;;;1.80;;
12302;SDS011;6214;48.012;7.862;2023-08-31T07:42:36;5.93;;;1.80;;
12302;SDS011;6214;48.012;7.862;2023-08-31T07:45:03;5.22;;;1.90;;
12302;SDS011;6214;48.012;7.862;2023-08-31T07:47:32;6.53;;;2.13;;
12302;SDS011;6214;48.012;7.862;2023-08-31T07:50:01;6.43;;;2.00;;
12302;SDS011;6214;48.012;7.862;2023-08-31T07:52:28;5.53;;;1.73;;
12302;SDS011;6214;48.012;7.862;2023-08-31T07:54:55;5.78;;;1.85;;
12302;SDS011;6214;48.012;7.862;2023-08-31T07:57:23;5.85;;;1.73;;
12302;SDS011;6214;48.012;7.862;2023-08-31T07:59:50;6.30;;;1.80;;
12302;SDS011;6214;48.012;7.862;2023-08-31T08:02:18;6.72;;;1.80;;
12302;SDS011;6214;48.012;7.862;2023-08-31T08:04:45;5.13;;;1.70;;
12302;SDS011;6214;48.012;7.862;2023-08-31T08:07:13;6.40;;;2.00;;
12302;SDS011;6214;48.012;7.862;2023-08-31T08:09:39;6.63;;;1.70;;
12302;SDS011;6214;48.012;7.862;2023-08-31T08:12:07;5.47;;;1.70;;
12302;SDS011;6214;48.012;7.862;2023-08-31T08:14:34;6.40;;;1.60;;
12302;SDS011;6214;48.012;7.862;2023-08-31T08:17:01;5.80;;;1.50;;
12302;SDS011;6214;48.012;7.862;2023-08-31T08:19:29;6.80;;;1.87;;
12302;SDS011;6214;48.012;7.862;2023-08-31T08:21:56;5.70;;;1.60;;
12302;SDS011;6214;48.012;7.862;2023-08-31T08:24:23;5.65;;;1.70;;
12302;SDS011;6214;48.012;7.862;2023-08-31T08:26:51;5.63;;;1.83;;
12302;SDS011;6214;48.012;7.862;2023-08-31T08:29:18;5.72;;;1.58;;
12302;SDS011;6214;48.012;7.862;2023-08-31T08:31:45;4.97;;;1.60;;
12302;SDS011;6214;48.012;7.862;2023-08-31T08:34:12;5.70;;;1.67;;
12302;SDS011;6214;48.012;7.862;2023-08-31T08:36:39;5.67;;;1.60;;
12302;SDS011;6214;48.012;7.862;2023-08-31T08:39:06;5.00;;;1.50;;
12302;SDS011;6214;48.012;7.862;2023-08-31T08:41:33;9.43;;;1.70;;
12302;SDS011;6214;48.012;7.862;2023-08-31T08:44:02;5.55;;;1.55;;
12302;SDS011;6214;48.012;7.862;2023-08-31T08:46:30;7.10;;;1.70;;
12302;SDS011;6214;48.012;7.862;2023-08-31T08:49:02;5.43;;;1.60;;
12302;SDS011;6214;48.012;7.862;2023-08-31T08:51:31;5.50;;;1.60;;
12302;SDS011;6214;48.012;7.862;2023-08-31T08:53:59;5.17;;;1.50;;
12302;SDS011;6214;48.012;7.862;2023-08-31T08:56:27;5.13;;;1.52;;
12302;SDS011;6214;48.012;7.862;2023-08-31T08:58:54;5.90;;;2.00;;
12302;SDS011;6214;48.012;7.862;2023-08-31T09:01:21;6.00;;;1.70;;
12302;SDS011;6214;48.012;7.862;2023-08-31T09:03:49;5.47;;;1.50;;
12302;SDS011;6214;48.012;7.862;2023-08-31T09:06:17;5.65;;;1.65;;
12302;SDS011;6214;48.012;7.862;2023-08-31T09:08:52;5.68;;;1.70;;
12302;SDS011;6214;48.012;7.862;2023-08-31T09:11:23;6.20;;;1.80;;
12302;SDS011;6214;48.012;7.862;2023-08-31T09:13:51;6.20;;;1.80;;
12302;SDS011;6214;48.012;7.862;2023-08-31T09:16:25;5.40;;;1.65;;
12302;SDS011;6214;48.012;7.862;2023-08-31T09:18:55;6.22;;;1.90;;
12302;SDS011;6214;48.012;7.862;2023-08-31T09:21:35;5.47;;;1.80;;
12302;SDS011;6214;48.012;7.862;2023-08-31T09:24:06;6.32;;;1.70;;
12302;SDS011;6214;48.012;7.862;2023-08-31T09:26:43;5.60;;;1.70;;
12302;SDS011;6214;48.012;7.862;2023-08-31T09:29:14;6.22;;;2.05;;
12302;SDS011;6214;48.012;7.862;2023-08-31T09:31:45;5.73;;;1.90;;
12302;SDS011;6214;48.012;7.862;2023-08-31T09:34:16;6.05;;;1.73;;
12302;SDS011;6214;48.012;7.862;2023-08-31T09:36:44;5.65;;;1.73;;
12302;SDS011;6214;48.012;7.862;2023-08-31T09:39:13;6.73;;;1.90;;
12302;SDS011;6214;48.012;7.862;2023-08-31T09:41:56;5.55;;;2.00;;
12302;SDS011;6214;48.012;7.862;2023-08-31T09:44:23;5.85;;;1.80;;
12302;SDS011;6214;48.012;7.862;2023-08-31T09:46:50;6.22;;;1.67;;
12302;SDS011;6214;48.012;7.862;2023-08-31T09:49:18;6.23;;;1.70;;
12302;SDS011;6214;48.012;7.862;2023-08-31T09:51:48;5.80;;;2.00;;
12302;SDS011;6214;48.012;7.862;2023-08-31T09:54:17;6.47;;;1.60;;
12302;SDS011;6214;48.012;7.862;2023-08-31T09:56:46;6.65;;;1.90;;
12302;SDS011;6214;48.012;7.862;2023-08-31T09:59:14;5.20;;;1.50;;
12302;SDS011;6214;48.012;7.862;2023-08-31T10:01:44;6.60;;;1.80;;
12302;SDS011;6214;48.012;7.862;2023-08-31T10:04:13;6.05;;;2.00;;
12302;SDS011;6214;48.012;7.862;2023-08-31T10:06:41;6.35;;;1.90;;
12302;SDS011;6214;48.012;7.862;2023-08-31T10:09:09;6.40;;;2.00;;
12302;SDS011;6214;48.012;7.862;2023-08-31T10:11:37;7.13;;;2.13;;
12302;SDS011;6214;48.012;7.862;2023-08-31T10:14:06;6.93;;;1.80;;
12302;SDS011;6214;48.012;7.862;2023-08-31T10:16:35;6.30;;;2.10;;
12302;SDS011;6214;48.012;7.862;2023-08-31T10:19:07;6.90;;;2.10;;
12302;SDS011;6214;48.012;7.862;2023-08-31T10:21:34;6.45;;;1.80;;
12302;SDS011;6214;48.012;7.862;2023-08-31T10:24:02;5.70;;;1.70;;
12302;SDS011;6214;48.012;7.862;2023-08-31T10:26:30;5.50;;;1.90;;
12302;SDS011;6214;48.012;7.862;2023-08-31T10:28:58;5.47;;;1.67;;
12302;SDS011;6214;48.012;7.862;2023-08-31T10:31:29;6.40;;;1.80;;
12302;SDS011;6214;48.012;7.862;2023-08-31T10:33:58;6.82;;;2.00;;
12302;SDS011;6214;48.012;7.862;2023-08-31T10:36:39;5.85;;;2.00;;
12302;SDS011;6214;48.012;7.862;2023-08-31T10:41:39;5.78;;;1.40;;
12302;SDS011;6214;48.012;7.862;2023-08-31T10:44:19;6.95;;;1.70;;
12302;SDS011;6214;48.012;7.862;2023-08-31T10:46:48;4.80;;;1.60;;
12302;SDS011;6214;48.012;7.862;2023-08-31T10:49:17;6.55;;;1.80;;
12302;SDS011;6214;48.012;7.862;2023-08-31T10:51:49;6.30;;;1.65;;
12302;SDS011;6214;48.012;7.862;2023-08-31T10:54:23;5.80;;;1.80;;
12302;SDS011;6214;48.012;7.862;2023-08-31T10:59:25;6.30;;;2.05;;
12302;SDS011;6214;48.012;7.862;2023-08-31T11:01:59;5.50;;;1.70;;
12302;SDS011;6214;48.012;7.862;2023-08-31T11:04:29;7.20;;;1.90;;
12302;SDS011;6214;48.012;7.862;2023-08-31T11:07:13;5.30;;;1.70;;
12302;SDS011;6214;48.012;7.862;2023-08-31T11:09:42;5.30;;;1.70;;
12302;SDS011;6214;48.012;7.862;2023-08-31T11:12:11;6.13;;;1.90;;
12302;SDS011;6214;48.012;7.862;2023-08-31T11:14:39;6.60;;;1.50;;
12302;SDS011;6214;48.012;7.862;2023-08-31T11:17:07;5.57;;;1.80;;
12302;SDS011;6214;48.012;7.862;2023-08-31T11:19:35;8.93;;;2.10;;
12302;SDS011;6214;48.012;7.862;2023-08-31T11:22:04;6.05;;;1.60;;
12302;SDS011;6214;48.012;7.862;2023-08-31T11:24:33;6.90;;;2.00;;
12302;SDS011;6214;48.012;7.862;2023-08-31T11:27:00;6.78;;;1.70;;
12302;SDS011;6214;48.012;7.862;2023-08-31T11:29:30;7.57;;;2.00;;
12302;SDS011;6214;48.012;7.862;2023-08-31T11:31:57;5.78;;;1.88;;
12302;SDS011;6214;48.012;7.862;2023-08-31T11:34:27;5.15;;;1.50;;
12302;SDS011;6214;48.012;7.862;2023-08-31T11:36:54;5.80;;;1.70;;
12302;SDS011;6214;48.012;7.862;2023-08-31T11:39:22;5.45;;;1.65;;
12302;SDS011;6214;48.012;7.862;2023-08-31T11:41:50;6.20;;;1.73;;
12302;SDS011;6214;48.012;7.862;2023-08-31T11:44:18;5.50;;;1.80;;
12302;SDS011;6214;48.012;7.862;2023-08-31T11:46:45;4.93;;;1.50;;
12302;SDS011;6214;48.012;7.862;2023-08-31T11:49:19;5.90;;;1.42;;
12302;SDS011;6214;48.012;7.862;2023-08-31T11:51:47;5.43;;;1.80;;
12302;SDS011;6214;48.012;7.862;2023-08-31T11:54:19;5.60;;;1.70;;
12302;SDS011;6214;48.012;7.862;2023-08-31T11:56:46;5.10;;;1.60;;
12302;SDS011;6214;48.012;7.862;2023-08-31T11:59:18;6.03;;;1.60;;
12302;SDS011;6214;48.012;7.862;2023-08-31T12:01:46;5.57;;;1.48;;
12302;SDS011;6214;48.012;7.862;2023-08-31T12:04:15;5.63;;;1.90;;
12302;SDS011;6214;48.012;7.862;2023-08-31T12:06:45;6.60;;;1.80;;
12302;SDS011;6214;48.012;7.862;2023-08-31T12:09:14;6.00;;;1.80;;
12302;SDS011;6214;48.012;7.862;2023-08-31T12:11:41;7.07;;;2.10;;
12302;SDS011;6214;48.012;7.862;2023-08-31T12:14:22;6.25;;;2.20;;
12302;SDS011;6214;48.012;7.862;2023-08-31T12:17:00;7.10;;;2.53;;
12302;SDS011;6214;48.012;7.862;2023-08-31T12:19:30;6.30;;;1.50;;
12302;SDS011;6214;48.012;7.862;2023-08-31T12:21:58;5.68;;;1.58;;
12302;SDS011;6214;48.012;7.862;2023-08-31T12:24:26;6.10;;;1.83;;
12302;SDS011;6214;48.012;7.862;2023-08-31T12:26:53;6.30;;;2.10;;
12302;SDS011;6214;48.012;7.862;2023-08-31T12:29:23;6.68;;;2.53;;
12302;SDS011;6214;48.012;7.862;2023-08-31T12:31:50;7.40;;;2.63;;
12302;SDS011;6214;48.012;7.862;2023-08-31T12:34:17;6.70;;;1.70;;
12302;SDS011;6214;48.012;7.862;2023-08-31T12:36:44;6.18;;;1.80;;
12302;SDS011;6214;48.012;7.862;2023-08-31T12:39:11;4.80;;;1.60;;
12302;SDS011;6214;48.012;7.862;2023-08-31T12:41:39;5.78;;;1.70;;
12302;SDS011;6214;48.012;7.862;2023-08-31T12:44:07;5.50;;;1.60;;
12302;SDS011;6214;48.012;7.862;2023-08-31T12:46:34;6.00;;;1.70;;
12302;SDS011;6214;48.012;7.862;2023-08-31T12:49:02;5.97;;;1.67;;
12302;SDS011;6214;48.012;7.862;2023-08-31T12:51:30;5.80;;;1.80;;
12302;SDS011;6214;48.012;7.862;2023-08-31T12:53:57;5.70;;;1.77;;
12302;SDS011;6214;48.012;7.862;2023-08-31T12:56:25;5.82;;;1.80;;
12302;SDS011;6214;48.012;7.862;2023-08-31T12:58:52;6.57;;;1.88;;
12302;SDS011;6214;48.012;7.862;2023-08-31T13:01:20;5.63;;;1.70;;
12302;SDS011;6214;48.012;7.862;2023-08-31T13:03:50;5.28;;;1.50;;
12302;SDS011;6214;48.012;7.862;2023-08-31T13:06:17;6.50;;;1.90;;
12302;SDS011;6214;48.012;7.862;2023-08-31T13:08:44;5.85;;;1.80;;
12302;SDS011;6214;48.012;7.862;2023-08-31T13:11:12;6.50;;;1.73;;
12302;SDS011;6214;48.012;7.862;2023-08-31T13:13:39;5.80;;;1.50;;
12302;SDS011;6214;48.012;7.862;2023-08-31T13:16:07;5.28;;;1.80;;
12302;SDS011;6214;48.012;7.862;2023-08-31T13:18:34;6.25;;;1.77;;
12302;SDS011;6214;48.012;7.862;2023-08-31T13:21:01;5.20;;;1.60;;
12302;SDS011;6214;48.012;7.862;2023-08-31T13:23:29;7.10;;;2.00;;
12302;SDS011;6214;48.012;7.862;2023-08-31T13:25:56;6.63;;;2.20;;
12302;SDS011;6214;48.012;7.862;2023-08-31T13:28:23;6.40;;;2.00;;
12302;SDS011;6214;48.012;7.862;2023-08-31T13:30:55;5.63;;;1.95;;
12302;SDS011;6214;48.012;7.862;2023-08-31T13:33:27;6.13;;;1.90;;
12302;SDS011;6214;48.012;7.862;2023-08-31T13:35:57;7.07;;;1.80;;
12302;SDS011;6214;48.012;7.862;2023-08-31T13:38:25;6.78;;;1.85;;
12302;SDS011;6214;48.012;7.862;2023-08-31T13:40:55;5.50;;;1.70;;
12302;SDS011;6214;48.012;7.862;2023-08-31T13:43:23;5.67;;;1.80;;
12302;SDS011;6214;48.012;7.862;2023-08-31T13:45:51;6.50;;;1.80;;
12302;SDS011;6214;48.012;7.862;2023-08-31T13:48:18;5.53;;;1.60;;
12302;SDS011;6214;48.012;7.862;2023-08-31T13:50:46;5.80;;;1.70;;
12302;SDS011;6214;48.012;7.862;2023-08-31T13:53:13;6.00;;;1.73;;
12302;SDS011;6214;48.012;7.862;2023-08-31T13:55:40;6.22;;;1.70;;
12302;SDS011;6214;48.012;7.862;2023-08-31T13:58:08;5.53;;;1.60;;
12302;SDS011;6214;48.012;7.862;2023-08-31T14:00:35;6.05;;;1.63;;
12302;SDS011;6214;48.012;7.862;2023-08-31T14:03:03;6.00;;;1.90;;
12302;SDS011;6214;48.012;7.862;2023-08-31T14:05:31;5.97;;;1.90;;
12302;SDS011;6214;48.012;7.862;2023-08-31T14:07:59;5.68;;;1.90;;
12302;SDS011;6214;48.012;7.862;2023-08-31T14:10:30;5.85;;;1.80;;
12302;SDS011;6214;48.012;7.862;2023-08-31T14:13:01;6.30;;;1.80;;
12302;SDS011;6214;48.012;7.862;2023-08-31T14:15:28;5.40;;;1.50;;
12302;SDS011;6214;48.012;7.862;2023-08-31T14:17:55;6.05;;;1.80;;
12302;SDS011;6214;48.012;7.862;2023-08-31T14:20:22;6.00;;;1.90;;
12302;SDS011;6214;48.012;7.862;2023-08-31T14:22:49;6.60;;;1.85;;
12302;SDS011;6214;48.012;7.862;2023-08-31T14:25:17;5.38;;;1.70;;
12302;SDS011;6214;48.012;7.862;2023-08-31T14:27:46;6.85;;;2.10;;
12302;SDS011;6214;48.012;7.862;2023-08-31T14:30:13;5.57;;;1.80;;
12302;SDS011;6214;48.012;7.862;2023-08-31T14:32:40;6.13;;;1.88;;
12302;SDS011;6214;48.012;7.862;2023-08-31T14:35:07;7.88;;;2.97;;
12302;SDS011;6214;48.012;7.862;2023-08-31T14:37:34;9.10;;;3.25;;
12302;SDS011;6214;48.012;7.862;2023-08-31T14:40:01;6.70;;;1.90;;
12302;SDS011;6214;48.012;7.862;2023-08-31T14:42:29;5.93;;;1.50;;
12302;SDS011;6214;48.012;7.862;2023-08-31T14:44:56;5.93;;;1.75;;
12302;SDS011;6214;48.012;7.862;2023-08-31T14:47:23;6.00;;;2.10;;
12302;SDS011;6214;48.012;7.862;2023-08-31T14:49:50;5.90;;;2.00;;
12302;SDS011;6214;48.012;7.862;2023-08-31T14:52:17;7.00;;;1.90;;
12302;SDS011;6214;48.012;7.862;2023-08-31T14:54:44;5.55;;;1.73;;
12302;SDS011;6214;48.012;7.862;2023-08-31T14:57:11;6.05;;;1.70;;
12302;SDS011;6214;48.012;7.862;2023-08-31T14:59:38;7.13;;;2.30;;
12302;SDS011;6214;48.012;7.862;2023-08-31T15:02:05;11.07;;;7.15;;
12302;SDS011;6214;48.012;7.862;2023-08-31T15:04:33;12.27;;;7.00;;
12302;SDS011;6214;48.012;7.862;2023-08-31T15:07:00;9.30;;;4.30;;
12302;SDS011;6214;48.012;7.862;2023-08-31T15:09:27;5.63;;;2.30;;
12302;SDS011;6214;48.012;7.862;2023-08-31T15:11:54;5.97;;;1.90;;
12302;SDS011;6214;48.012;7.862;2023-08-31T15:14:21;7.10;;;1.70;;
12302;SDS011;6214;48.012;7.862;2023-08-31T15:16:48;8.20;;;2.20;;
12302;SDS011;6214;48.012;7.862;2023-08-31T15:19:15;6.13;;;1.80;;
12302;SDS011;6214;48.012;7.862;2023-08-31T15:21:42;5.60;;;1.90;;
12302;SDS011;6214;48.012;7.862;2023-08-31T15:24:09;5.30;;;1.98;;